La Clotilde, Argentina
Current Conditions -  °F | °C
As of 11:00 AM on Saturday 22 Nov 2014 (Local Time) from SARE Reporting Station
Few Clouds Few Clouds  
Wind Chill: 77°   Ceiling: Unl
Heat Index: 79°   Visibility: 6mi
Dew Point: 61°   Wind: 5mph
Humidity: 57%   Direction: 180°S
Pressure: 29.97"   Gusts: NA
Location:  27.17°S, 60.64°W
Report Text: SARE 221400Z 18004KT 9999 FEW012 25/16 Q1015
Loading
Personal Weather Stations






























Interactive Weather Map New forecast layout! Learn more

10-Day Weather Forecast

Advertisements
Track Severe Weather on mobile